sensor_id;sensor_type;location;lat;lon;timestamp;P1;P2;P0
80861;PMS5003;71798;54.942;73.444;2023-09-19T00:00:38;53.25;43.00;28.00
80861;PMS5003;71798;54.942;73.444;2023-09-19T00:03:06;56.50;44.50;27.75
80861;PMS5003;71798;54.942;73.444;2023-09-19T00:05:35;62.00;48.50;31.00
80861;PMS5003;71798;54.942;73.444;2023-09-19T00:08:02;63.00;49.50;31.50
80861;PMS5003;71798;54.942;73.444;2023-09-19T00:10:31;61.00;48.00;30.50
80861;PMS5003;71798;54.942;73.444;2023-09-19T00:13:00;59.50;47.25;30.25
80861;PMS5003;71798;54.942;73.444;2023-09-19T00:15:30;60.00;47.00;30.00
80861;PMS5003;71798;54.942;73.444;2023-09-19T00:18:00;57.00;45.00;27.00
80861;PMS5003;71798;54.942;73.444;2023-09-19T00:20:26;58.00;46.50;29.00
80861;PMS5003;71798;54.942;73.444;2023-09-19T00:22:52;67.50;52.75;32.75
80861;PMS5003;71798;54.942;73.444;2023-09-19T00:25:21;57.75;45.00;27.00
80861;PMS5003;71798;54.942;73.444;2023-09-19T00:27:47;53.50;42.50;26.00
80861;PMS5003;71798;54.942;73.444;2023-09-19T00:30:15;52.00;41.00;26.00
80861;PMS5003;71798;54.942;73.444;2023-09-19T00:32:46;53.00;42.00;26.75
80861;PMS5003;71798;54.942;73.444;2023-09-19T00:35:15;51.75;40.50;25.25
80861;PMS5003;71798;54.942;73.444;2023-09-19T00:37:41;50.50;39.50;24.50
80861;PMS5003;71798;54.942;73.444;2023-09-19T00:40:08;52.25;41.00;26.75
80861;PMS5003;71798;54.942;73.444;2023-09-19T00:42:47;53.75;42.50;26.25
80861;PMS5003;71798;54.942;73.444;2023-09-19T00:45:14;59.00;46.00;28.00
80861;PMS5003;71798;54.942;73.444;2023-09-19T00:47:44;51.75;40.50;25.00
80861;PMS5003;71798;54.942;73.444;2023-09-19T00:50:11;53.00;41.00;25.00
80861;PMS5003;71798;54.942;73.444;2023-09-19T00:52:40;53.00;41.00;26.00
80861;PMS5003;71798;54.942;73.444;2023-09-19T00:55:09;53.50;42.00;27.00
80861;PMS5003;71798;54.942;73.444;2023-09-19T00:57:36;62.50;48.00;29.25
80861;PMS5003;71798;54.942;73.444;2023-09-19T01:00:04;56.00;42.75;26.00
80861;PMS5003;71798;54.942;73.444;2023-09-19T01:02:34;52.00;41.00;25.50
80861;PMS5003;71798;54.942;73.444;2023-09-19T01:05:00;51.00;41.00;26.00
80861;PMS5003;71798;54.942;73.444;2023-09-19T01:07:27;60.00;47.00;29.00
80861;PMS5003;71798;54.942;73.444;2023-09-19T01:09:58;54.00;42.50;26.25
80861;PMS5003;71798;54.942;73.444;2023-09-19T01:12:42;53.75;42.50;26.50
80861;PMS5003;71798;54.942;73.444;2023-09-19T01:15:12;69.00;52.00;32.00
80861;PMS5003;71798;54.942;73.444;2023-09-19T01:18:02;57.50;44.75;28.00
80861;PMS5003;71798;54.942;73.444;2023-09-19T01:20:45;63.00;49.00;30.00
80861;PMS5003;71798;54.942;73.444;2023-09-19T01:28:53;49.75;40.00;25.00
80861;PMS5003;71798;54.942;73.444;2023-09-19T01:31:19;57.00;44.00;26.50
80861;PMS5003;71798;54.942;73.444;2023-09-19T01:34:07;65.00;50.50;31.75
80861;PMS5003;71798;54.942;73.444;2023-09-19T01:36:35;62.75;48.50;30.25
80861;PMS5003;71798;54.942;73.444;2023-09-19T01:39:06;63.00;49.00;31.00
80861;PMS5003;71798;54.942;73.444;2023-09-19T01:41:56;78.75;69.25;48.25
80861;PMS5003;71798;54.942;73.444;2023-09-19T01:44:29;76.75;65.75;44.00
80861;PMS5003;71798;54.942;73.444;2023-09-19T01:46:58;66.00;52.00;33.00
80861;PMS5003;71798;54.942;73.444;2023-09-19T01:49:27;68.50;54.00;35.00
80861;PMS5003;71798;54.942;73.444;2023-09-19T01:52:09;66.75;51.75;33.00
80861;PMS5003;71798;54.942;73.444;2023-09-19T01:54:50;67.00;53.50;34.25
80861;PMS5003;71798;54.942;73.444;2023-09-19T01:57:29;67.25;52.50;34.00
80861;PMS5003;71798;54.942;73.444;2023-09-19T02:00:03;61.75;49.00;32.00
80861;PMS5003;71798;54.942;73.444;2023-09-19T02:02:43;64.00;49.00;29.25
80861;PMS5003;71798;54.942;73.444;2023-09-19T02:05:10;57.00;45.00;27.00
80861;PMS5003;71798;54.942;73.444;2023-09-19T02:07:38;64.00;49.00;29.75
80861;PMS5003;71798;54.942;73.444;2023-09-19T02:10:04;59.00;46.25;29.00
80861;PMS5003;71798;54.942;73.444;2023-09-19T02:12:32;58.50;46.00;28.00
80861;PMS5003;71798;54.942;73.444;2023-09-19T02:15:03;58.00;46.00;29.00
80861;PMS5003;71798;54.942;73.444;2023-09-19T02:17:29;60.00;47.00;28.00
80861;PMS5003;71798;54.942;73.444;2023-09-19T02:19:56;58.00;44.50;27.00
80861;PMS5003;71798;54.942;73.444;2023-09-19T02:22:24;48.00;39.00;23.00
80861;PMS5003;71798;54.942;73.444;2023-09-19T02:24:50;51.00;41.00;25.00
80861;PMS5003;71798;54.942;73.444;2023-09-19T02:27:20;42.00;33.00;20.75
80861;PMS5003;71798;54.942;73.444;2023-09-19T02:29:46;48.50;38.00;24.50
80861;PMS5003;71798;54.942;73.444;2023-09-19T02:32:12;43.00;34.25;22.00
80861;PMS5003;71798;54.942;73.444;2023-09-19T02:34:38;48.75;39.00;23.75
80861;PMS5003;71798;54.942;73.444;2023-09-19T02:37:07;43.00;34.75;23.00
80861;PMS5003;71798;54.942;73.444;2023-09-19T02:39:39;44.00;36.00;22.50
80861;PMS5003;71798;54.942;73.444;2023-09-19T02:42:05;44.50;36.00;23.25
80861;PMS5003;71798;54.942;73.444;2023-09-19T02:44:32;45.25;37.00;23.00
80861;PMS5003;71798;54.942;73.444;2023-09-19T02:46:59;47.25;37.00;24.00
80861;PMS5003;71798;54.942;73.444;2023-09-19T02:49:26;48.00;39.00;24.00
80861;PMS5003;71798;54.942;73.444;2023-09-19T02:51:52;48.00;39.00;25.00
80861;PMS5003;71798;54.942;73.444;2023-09-19T02:54:18;49.75;39.00;24.25
80861;PMS5003;71798;54.942;73.444;2023-09-19T02:56:44;42.00;34.00;22.00
80861;PMS5003;71798;54.942;73.444;2023-09-19T02:59:11;43.00;34.00;21.00
80861;PMS5003;71798;54.942;73.444;2023-09-19T03:01:37;39.25;32.00;20.00
80861;PMS5003;71798;54.942;73.444;2023-09-19T03:04:04;43.50;35.00;22.00
80861;PMS5003;71798;54.942;73.444;2023-09-19T03:06:37;42.00;33.50;21.50
80861;PMS5003;71798;54.942;73.444;2023-09-19T03:09:04;43.00;35.00;22.00
80861;PMS5003;71798;54.942;73.444;2023-09-19T03:11:38;42.00;34.00;21.75
80861;PMS5003;71798;54.942;73.444;2023-09-19T03:14:05;37.00;31.50;20.00
80861;PMS5003;71798;54.942;73.444;2023-09-19T03:16:32;38.00;31.00;20.00
80861;PMS5003;71798;54.942;73.444;2023-09-19T03:19:00;37.75;31.00;19.00
80861;PMS5003;71798;54.942;73.444;2023-09-19T03:21:27;37.75;31.00;19.00
80861;PMS5003;71798;54.942;73.444;2023-09-19T03:23:56;35.00;29.00;18.00
80861;PMS5003;71798;54.942;73.444;2023-09-19T03:26:22;43.75;35.50;22.00
80861;PMS5003;71798;54.942;73.444;2023-09-19T03:28:48;51.00;40.75;25.00
80861;PMS5003;71798;54.942;73.444;2023-09-19T03:31:14;41.00;34.00;22.00
80861;PMS5003;71798;54.942;73.444;2023-09-19T03:33:41;46.50;37.00;23.00
80861;PMS5003;71798;54.942;73.444;2023-09-19T03:36:07;43.75;36.25;22.00
80861;PMS5003;71798;54.942;73.444;2023-09-19T03:38:34;47.00;38.00;22.50
80861;PMS5003;71798;54.942;73.444;2023-09-19T03:41:01;53.00;41.00;26.00
80861;PMS5003;71798;54.942;73.444;2023-09-19T03:43:27;43.00;35.00;22.00
80861;PMS5003;71798;54.942;73.444;2023-09-19T03:45:54;42.00;33.50;20.75
80861;PMS5003;71798;54.942;73.444;2023-09-19T03:48:22;35.00;27.00;16.00
80861;PMS5003;71798;54.942;73.444;2023-09-19T03:50:50;21.00;18.00;10.00
80861;PMS5003;71798;54.942;73.444;2023-09-19T03:53:16;22.00;19.00;12.00
80861;PMS5003;71798;54.942;73.444;2023-09-19T03:55:44;20.00;18.00;12.00
80861;PMS5003;71798;54.942;73.444;2023-09-19T03:58:11;22.00;19.00;12.00
80861;PMS5003;71798;54.942;73.444;2023-09-19T04:00:38;18.00;15.50;10.00
80861;PMS5003;71798;54.942;73.444;2023-09-19T04:03:05;18.00;16.00;10.00
80861;PMS5003;71798;54.942;73.444;2023-09-19T04:05:32;20.00;17.25;11.00
80861;PMS5003;71798;54.942;73.444;2023-09-19T04:08:00;23.00;20.00;13.00
80861;PMS5003;71798;54.942;73.444;2023-09-19T04:10:26;22.00;18.75;11.00
80861;PMS5003;71798;54.942;73.444;2023-09-19T04:12:54;24.00;19.00;12.00
80861;PMS5003;71798;54.942;73.444;2023-09-19T04:15:22;22.50;19.00;12.00
80861;PMS5003;71798;54.942;73.444;2023-09-19T04:17:50;20.00;18.00;11.00
80861;PMS5003;71798;54.942;73.444;2023-09-19T04:20:20;18.00;16.00;10.00
80861;PMS5003;71798;54.942;73.444;2023-09-19T04:22:48;20.75;17.50;10.00
80861;PMS5003;71798;54.942;73.444;2023-09-19T04:25:14;19.00;16.00;10.00
80861;PMS5003;71798;54.942;73.444;2023-09-19T04:27:40;19.00;16.00;9.50
80861;PMS5003;71798;54.942;73.444;2023-09-19T04:30:09;22.00;19.00;11.00
80861;PMS5003;71798;54.942;73.444;2023-09-19T04:32:37;22.00;17.75;10.75
80861;PMS5003;71798;54.942;73.444;2023-09-19T04:35:07;22.00;19.00;12.00
80861;PMS5003;71798;54.942;73.444;2023-09-19T04:37:40;22.00;19.00;12.00
80861;PMS5003;71798;54.942;73.444;2023-09-19T04:40:08;26.00;23.00;13.50
80861;PMS5003;71798;54.942;73.444;2023-09-19T04:42:43;26.00;22.00;12.75
80861;PMS5003;71798;54.942;73.444;2023-09-19T04:45:10;23.00;20.00;12.75
80861;PMS5003;71798;54.942;73.444;2023-09-19T04:47:36;22.25;20.00;13.00
80861;PMS5003;71798;54.942;73.444;2023-09-19T04:50:05;21.00;19.00;11.00
80861;PMS5003;71798;54.942;73.444;2023-09-19T04:52:31;18.25;15.25;9.00
80861;PMS5003;71798;54.942;73.444;2023-09-19T04:54:58;20.00;18.00;11.00
80861;PMS5003;71798;54.942;73.444;2023-09-19T04:57:24;21.25;18.00;12.00
80861;PMS5003;71798;54.942;73.444;2023-09-19T04:59:51;19.00;17.00;11.00
80861;PMS5003;71798;54.942;73.444;2023-09-19T05:02:17;21.00;18.00;10.50
80861;PMS5003;71798;54.942;73.444;2023-09-19T05:04:43;20.00;17.00;10.00
80861;PMS5003;71798;54.942;73.444;2023-09-19T05:07:09;15.25;13.50;8.25
80861;PMS5003;71798;54.942;73.444;2023-09-19T05:09:36;22.50;19.00;12.00
80861;PMS5003;71798;54.942;73.444;2023-09-19T05:12:03;18.00;15.50;10.00
80861;PMS5003;71798;54.942;73.444;2023-09-19T05:14:29;19.00;17.00;10.50
80861;PMS5003;71798;54.942;73.444;2023-09-19T05:16:55;17.00;15.00;9.00
80861;PMS5003;71798;54.942;73.444;2023-09-19T05:19:21;19.00;15.75;9.00
80861;PMS5003;71798;54.942;73.444;2023-09-19T05:21:47;18.75;16.50;10.00
80861;PMS5003;71798;54.942;73.444;2023-09-19T05:24:14;17.50;15.75;10.00
80861;PMS5003;71798;54.942;73.444;2023-09-19T05:26:40;23.00;20.00;12.00
80861;PMS5003;71798;54.942;73.444;2023-09-19T05:29:06;23.25;20.25;13.25
80861;PMS5003;71798;54.942;73.444;2023-09-19T05:31:33;16.75;14.25;9.00
80861;PMS5003;71798;54.942;73.444;2023-09-19T05:34:02;18.50;16.00;10.00
80861;PMS5003;71798;54.942;73.444;2023-09-19T05:36:28;19.00;17.00;10.00
80861;PMS5003;71798;54.942;73.444;2023-09-19T05:38:55;15.75;13.50;8.00
80861;PMS5003;71798;54.942;73.444;2023-09-19T05:41:21;16.75;14.00;9.00
80861;PMS5003;71798;54.942;73.444;2023-09-19T05:43:49;17.00;14.00;8.00
80861;PMS5003;71798;54.942;73.444;2023-09-19T05:46:25;15.00;13.00;8.00
80861;PMS5003;71798;54.942;73.444;2023-09-19T05:48:59;14.00;12.00;8.00
80861;PMS5003;71798;54.942;73.444;2023-09-19T05:51:29;16.00;13.00;7.00
80861;PMS5003;71798;54.942;73.444;2023-09-19T05:53:58;15.00;12.25;7.00
80861;PMS5003;71798;54.942;73.444;2023-09-19T05:56:25;12.00;10.00;7.00
80861;PMS5003;71798;54.942;73.444;2023-09-19T05:58:53;11.00;9.00;6.00
80861;PMS5003;71798;54.942;73.444;2023-09-19T06:01:21;12.00;10.00;6.00
80861;PMS5003;71798;54.942;73.444;2023-09-19T06:03:49;13.00;11.00;7.00
80861;PMS5003;71798;54.942;73.444;2023-09-19T06:06:15;14.00;12.00;7.25
80861;PMS5003;71798;54.942;73.444;2023-09-19T06:08:41;16.00;13.00;7.00
80861;PMS5003;71798;54.942;73.444;2023-09-19T06:11:10;14.00;12.00;7.00
80861;PMS5003;71798;54.942;73.444;2023-09-19T06:13:40;14.75;12.50;7.50
80861;PMS5003;71798;54.942;73.444;2023-09-19T06:16:09;12.00;11.00;7.00
80861;PMS5003;71798;54.942;73.444;2023-09-19T06:18:38;13.00;11.00;6.00
80861;PMS5003;71798;54.942;73.444;2023-09-19T06:21:06;12.00;10.00;6.00
80861;PMS5003;71798;54.942;73.444;2023-09-19T06:23:35;12.00;10.00;6.25
80861;PMS5003;71798;54.942;73.444;2023-09-19T06:26:03;13.00;11.00;6.00
80861;PMS5003;71798;54.942;73.444;2023-09-19T06:28:32;12.00;10.00;6.00
80861;PMS5003;71798;54.942;73.444;2023-09-19T06:31:10;11.00;10.00;7.00
80861;PMS5003;71798;54.942;73.444;2023-09-19T06:33:40;11.00;9.50;5.25
80861;PMS5003;71798;54.942;73.444;2023-09-19T06:36:06;9.75;9.00;5.25
80861;PMS5003;71798;54.942;73.444;2023-09-19T06:38:34;12.00;10.00;6.25
80861;PMS5003;71798;54.942;73.444;2023-09-19T06:41:02;10.00;9.00;6.00
80861;PMS5003;71798;54.942;73.444;2023-09-19T06:43:31;12.00;11.00;7.00
80861;PMS5003;71798;54.942;73.444;2023-09-19T06:45:57;11.00;10.50;7.00
80861;PMS5003;71798;54.942;73.444;2023-09-19T06:48:24;12.00;11.00;6.75
80861;PMS5003;71798;54.942;73.444;2023-09-19T06:50:57;12.00;11.00;7.00
80861;PMS5003;71798;54.942;73.444;2023-09-19T06:53:24;13.00;11.50;8.00
80861;PMS5003;71798;54.942;73.444;2023-09-19T06:55:50;13.00;12.00;7.00
80861;PMS5003;71798;54.942;73.444;2023-09-19T06:58:17;13.00;11.00;7.00
80861;PMS5003;71798;54.942;73.444;2023-09-19T07:00:43;14.00;12.00;7.00
80861;PMS5003;71798;54.942;73.444;2023-09-19T07:03:10;14.00;13.00;8.00
80861;PMS5003;71798;54.942;73.444;2023-09-19T07:05:39;15.00;13.50;8.00
80861;PMS5003;71798;54.942;73.444;2023-09-19T07:08:06;14.00;12.00;8.00
80861;PMS5003;71798;54.942;73.444;2023-09-19T07:10:32;14.00;13.00;9.00
80861;PMS5003;71798;54.942;73.444;2023-09-19T07:12:59;16.00;14.50;9.00
80861;PMS5003;71798;54.942;73.444;2023-09-19T07:15:26;16.00;14.00;8.00
80861;PMS5003;71798;54.942;73.444;2023-09-19T07:17:52;15.50;14.00;9.00
80861;PMS5003;71798;54.942;73.444;2023-09-19T07:20:19;16.25;13.75;8.00
80861;PMS5003;71798;54.942;73.444;2023-09-19T07:22:45;17.25;14.00;8.00
80861;PMS5003;71798;54.942;73.444;2023-09-19T07:25:12;16.00;14.00;8.00
80861;PMS5003;71798;54.942;73.444;2023-09-19T07:27:40;15.25;14.00;9.00
80861;PMS5003;71798;54.942;73.444;2023-09-19T07:30:06;14.00;12.00;7.00
80861;PMS5003;71798;54.942;73.444;2023-09-19T07:32:34;16.00;13.00;8.00
80861;PMS5003;71798;54.942;73.444;2023-09-19T07:35:05;15.00;12.00;8.50
80861;PMS5003;71798;54.942;73.444;2023-09-19T07:37:34;15.25;14.00;9.00
80861;PMS5003;71798;54.942;73.444;2023-09-19T07:40:02;13.00;11.00;8.00
80861;PMS5003;71798;54.942;73.444;2023-09-19T07:42:33;15.00;12.75;7.75
80861;PMS5003;71798;54.942;73.444;2023-09-19T07:45:02;14.00;13.00;9.00
80861;PMS5003;71798;54.942;73.444;2023-09-19T07:47:34;14.25;13.00;8.00
80861;PMS5003;71798;54.942;73.444;2023-09-19T07:50:05;12.00;11.00;7.00
80861;PMS5003;71798;54.942;73.444;2023-09-19T07:52:34;13.00;11.00;7.00
80861;PMS5003;71798;54.942;73.444;2023-09-19T07:55:01;13.00;11.50;7.00
80861;PMS5003;71798;54.942;73.444;2023-09-19T07:57:32;17.00;14.00;9.00
80861;PMS5003;71798;54.942;73.444;2023-09-19T08:00:05;13.00;12.00;8.00
80861;PMS5003;71798;54.942;73.444;2023-09-19T08:02:39;11.50;11.00;7.00
80861;PMS5003;71798;54.942;73.444;2023-09-19T08:05:10;13.00;11.75;8.00
80861;PMS5003;71798;54.942;73.444;2023-09-19T08:07:41;15.00;13.25;9.00
80861;PMS5003;71798;54.942;73.444;2023-09-19T08:10:08;20.00;16.00;10.50
80861;PMS5003;71798;54.942;73.444;2023-09-19T08:12:39;16.00;14.00;9.00
80861;PMS5003;71798;54.942;73.444;2023-09-19T08:15:13;21.00;18.00;11.00
80861;PMS5003;71798;54.942;73.444;2023-09-19T08:17:43;16.00;14.00;8.00
80861;PMS5003;71798;54.942;73.444;2023-09-19T08:21:01;16.00;14.00;9.00
80861;PMS5003;71798;54.942;73.444;2023-09-19T08:23:34;13.25;11.75;7.00
80861;PMS5003;71798;54.942;73.444;2023-09-19T08:26:00;17.00;15.25;10.00
80861;PMS5003;71798;54.942;73.444;2023-09-19T08:28:45;14.00;12.00;8.00
80861;PMS5003;71798;54.942;73.444;2023-09-19T08:31:14;16.00;14.00;10.00
80861;PMS5003;71798;54.942;73.444;2023-09-19T08:33:41;13.00;11.00;8.00
80861;PMS5003;71798;54.942;73.444;2023-09-19T08:36:21;13.00;11.00;7.00
80861;PMS5003;71798;54.942;73.444;2023-09-19T08:38:49;13.00;11.50;7.00
80861;PMS5003;71798;54.942;73.444;2023-09-19T08:41:19;12.50;11.50;7.75
80861;PMS5003;71798;54.942;73.444;2023-09-19T08:43:47;10.00;9.00;6.00
80861;PMS5003;71798;54.942;73.444;2023-09-19T08:46:16;11.00;10.00;7.00
80861;PMS5003;71798;54.942;73.444;2023-09-19T08:48:57;16.00;13.00;8.00
80861;PMS5003;71798;54.942;73.444;2023-09-19T08:51:45;12.00;11.00;7.00
80861;PMS5003;71798;54.942;73.444;2023-09-19T08:54:25;13.25;11.50;7.50
80861;PMS5003;71798;54.942;73.444;2023-09-19T08:57:08;13.00;12.00;7.00
80861;PMS5003;71798;54.942;73.444;2023-09-19T08:59:38;13.00;11.00;6.00
80861;PMS5003;71798;54.942;73.444;2023-09-19T09:02:11;13.00;12.00;7.00
80861;PMS5003;71798;54.942;73.444;2023-09-19T09:04:42;13.50;12.00;8.00
80861;PMS5003;71798;54.942;73.444;2023-09-19T09:07:10;19.00;17.00;10.50
80861;PMS5003;71798;54.942;73.444;2023-09-19T09:09:38;13.00;12.00;8.00
80861;PMS5003;71798;54.942;73.444;2023-09-19T09:12:20;13.00;11.00;8.00
80861;PMS5003;71798;54.942;73.444;2023-09-19T09:14:51;15.00;13.00;9.00
80861;PMS5003;71798;54.942;73.444;2023-09-19T09:17:19;17.25;15.00;9.00
80861;PMS5003;71798;54.942;73.444;2023-09-19T09:19:47;14.00;12.75;8.00
80861;PMS5003;71798;54.942;73.444;2023-09-19T09:22:13;19.00;16.00;10.00
80861;PMS5003;71798;54.942;73.444;2023-09-19T09:24:52;16.00;14.00;8.75
80861;PMS5003;71798;54.942;73.444;2023-09-19T09:27:34;15.00;14.00;9.00
80861;PMS5003;71798;54.942;73.444;2023-09-19T09:30:02;29.75;24.25;14.75
80861;PMS5003;71798;54.942;73.444;2023-09-19T09:32:30;29.50;23.75;14.00
80861;PMS5003;71798;54.942;73.444;2023-09-19T09:35:07;23.25;19.25;12.00
80861;PMS5003;71798;54.942;73.444;2023-09-19T09:37:36;25.00;22.00;13.00
80861;PMS5003;71798;54.942;73.444;2023-09-19T09:40:04;28.00;23.00;13.00
80861;PMS5003;71798;54.942;73.444;2023-09-19T09:42:45;25.00;21.25;14.00
80861;PMS5003;71798;54.942;73.444;2023-09-19T09:45:16;20.00;17.50;11.00
80861;PMS5003;71798;54.942;73.444;2023-09-19T09:47:47;20.00;18.00;12.00
80861;PMS5003;71798;54.942;73.444;2023-09-19T09:50:34;24.00;20.00;12.00
80861;PMS5003;71798;54.942;73.444;2023-09-19T09:53:26;24.00;21.50;14.00
80861;PMS5003;71798;54.942;73.444;2023-09-19T09:56:07;18.00;16.00;10.00
80861;PMS5003;71798;54.942;73.444;2023-09-19T09:58:37;19.00;16.75;10.00
80861;PMS5003;71798;54.942;73.444;2023-09-19T10:01:09;17.00;16.00;10.00
80861;PMS5003;71798;54.942;73.444;2023-09-19T10:03:37;17.00;15.00;9.00
80861;PMS5003;71798;54.942;73.444;2023-09-19T10:06:10;18.25;16.00;11.00
80861;PMS5003;71798;54.942;73.444;2023-09-19T10:09:02;19.00;16.25;10.00
80861;PMS5003;71798;54.942;73.444;2023-09-19T10:11:46;20.00;17.00;11.00
80861;PMS5003;71798;54.942;73.444;2023-09-19T10:14:16;21.00;18.00;11.00
80861;PMS5003;71798;54.942;73.444;2023-09-19T10:16:49;17.00;15.25;9.75
80861;PMS5003;71798;54.942;73.444;2023-09-19T10:19:16;17.50;15.75;10.00
80861;PMS5003;71798;54.942;73.444;2023-09-19T10:21:48;19.75;17.00;11.00
80861;PMS5003;71798;54.942;73.444;2023-09-19T10:24:15;26.75;22.50;13.00
80861;PMS5003;71798;54.942;73.444;2023-09-19T10:26:43;22.50;19.75;12.50
80861;PMS5003;71798;54.942;73.444;2023-09-19T10:29:11;18.00;16.00;10.00
80861;PMS5003;71798;54.942;73.444;2023-09-19T10:31:39;23.00;19.25;13.00
80861;PMS5003;71798;54.942;73.444;2023-09-19T10:34:15;38.00;30.00;18.00
80861;PMS5003;71798;54.942;73.444;2023-09-19T10:36:45;24.75;21.75;12.75
80861;PMS5003;71798;54.942;73.444;2023-09-19T10:39:16;20.00;18.00;11.25
80861;PMS5003;71798;54.942;73.444;2023-09-19T10:41:51;18.50;16.25;10.00
80861;PMS5003;71798;54.942;73.444;2023-09-19T10:44:24;25.00;21.00;13.00
80861;PMS5003;71798;54.942;73.444;2023-09-19T10:47:00;22.50;20.00;13.00
80861;PMS5003;71798;54.942;73.444;2023-09-19T10:49:30;25.00;22.75;14.00
80861;PMS5003;71798;54.942;73.444;2023-09-19T10:51:58;18.75;17.75;12.00
80861;PMS5003;71798;54.942;73.444;2023-09-19T10:54:31;22.00;19.00;13.00
80861;PMS5003;71798;54.942;73.444;2023-09-19T10:57:02;23.00;20.00;13.00
80861;PMS5003;71798;54.942;73.444;2023-09-19T10:59:33;25.25;22.00;13.00
80861;PMS5003;71798;54.942;73.444;2023-09-19T11:02:15;21.25;18.00;11.00
80861;PMS5003;71798;54.942;73.444;2023-09-19T11:04:51;28.00;24.00;14.00
80861;PMS5003;71798;54.942;73.444;2023-09-19T11:07:18;28.00;22.00;12.25
80861;PMS5003;71798;54.942;73.444;2023-09-19T11:09:53;32.75;27.25;17.00
80861;PMS5003;71798;54.942;73.444;2023-09-19T11:16:02;31.00;26.00;17.25
80861;PMS5003;71798;54.942;73.444;2023-09-19T11:18:01;29.00;25.00;15.00
80861;PMS5003;71798;54.942;73.444;2023-09-19T11:21:00;28.00;24.00;16.00
80861;PMS5003;71798;54.942;73.444;2023-09-19T11:24:05;26.50;22.00;14.00
80861;PMS5003;71798;54.942;73.444;2023-09-19T11:26:43;23.50;19.50;12.50
80861;PMS5003;71798;54.942;73.444;2023-09-19T11:29:29;25.50;22.00;14.00
80861;PMS5003;71798;54.942;73.444;2023-09-19T11:31:56;45.25;36.00;22.00
80861;PMS5003;71798;54.942;73.444;2023-09-19T11:37:59;41.50;33.25;20.00
80861;PMS5003;71798;54.942;73.444;2023-09-19T11:40:08;37.25;29.00;18.25
80861;PMS5003;71798;54.942;73.444;2023-09-19T11:42:54;33.25;27.00;17.00
80861;PMS5003;71798;54.942;73.444;2023-09-19T11:48:37;27.00;23.00;15.00
80861;PMS5003;71798;54.942;73.444;2023-09-19T11:51:10;21.25;19.50;11.75
80861;PMS5003;71798;54.942;73.444;2023-09-19T11:53:44;26.50;22.00;15.00
80861;PMS5003;71798;54.942;73.444;2023-09-19T11:56:10;32.00;27.00;17.00
80861;PMS5003;71798;54.942;73.444;2023-09-19T11:58:37;34.00;27.50;17.00
80861;PMS5003;71798;54.942;73.444;2023-09-19T12:01:06;26.00;22.00;14.00
80861;PMS5003;71798;54.942;73.444;2023-09-19T12:03:39;24.50;22.00;14.75
80861;PMS5003;71798;54.942;73.444;2023-09-19T12:06:11;22.00;20.00;12.00
80861;PMS5003;71798;54.942;73.444;2023-09-19T12:08:39;22.00;19.00;12.00
80861;PMS5003;71798;54.942;73.444;2023-09-19T12:11:11;26.00;21.00;13.00
80861;PMS5003;71798;54.942;73.444;2023-09-19T12:13:50;29.00;24.00;15.00
80861;PMS5003;71798;54.942;73.444;2023-09-19T12:16:19;29.00;25.00;16.00
80861;PMS5003;71798;54.942;73.444;2023-09-19T12:18:51;27.25;23.00;14.00
80861;PMS5003;71798;54.942;73.444;2023-09-19T12:21:28;28.25;23.00;14.50
80861;PMS5003;71798;54.942;73.444;2023-09-19T12:26:40;23.00;20.00;12.50
80861;PMS5003;71798;54.942;73.444;2023-09-19T12:31:50;22.00;19.00;13.00
80861;PMS5003;71798;54.942;73.444;2023-09-19T12:34:19;24.75;21.00;13.00
80861;PMS5003;71798;54.942;73.444;2023-09-19T12:37:02;27.00;23.00;14.00
80861;PMS5003;71798;54.942;73.444;2023-09-19T12:39:29;28.00;23.00;14.00
80861;PMS5003;71798;54.942;73.444;2023-09-19T12:41:55;27.00;21.00;13.00
80861;PMS5003;71798;54.942;73.444;2023-09-19T12:44:22;32.00;26.00;16.00
80861;PMS5003;71798;54.942;73.444;2023-09-19T12:46:50;32.75;26.00;17.00
80861;PMS5003;71798;54.942;73.444;2023-09-19T12:49:19;31.25;26.00;16.00
80861;PMS5003;71798;54.942;73.444;2023-09-19T12:51:46;50.50;39.00;23.00
80861;PMS5003;71798;54.942;73.444;2023-09-19T12:54:13;53.75;42.00;24.00
80861;PMS5003;71798;54.942;73.444;2023-09-19T12:56:45;78.00;59.25;32.00
80861;PMS5003;71798;54.942;73.444;2023-09-19T12:59:13;63.75;48.00;27.25
80861;PMS5003;71798;54.942;73.444;2023-09-19T13:01:40;62.00;48.00;29.00
80861;PMS5003;71798;54.942;73.444;2023-09-19T13:04:21;56.00;45.00;28.00
80861;PMS5003;71798;54.942;73.444;2023-09-19T13:06:59;53.00;43.00;26.00
80861;PMS5003;71798;54.942;73.444;2023-09-19T13:09:26;37.00;30.00;19.25
80861;PMS5003;71798;54.942;73.444;2023-09-19T13:12:05;40.75;33.25;20.00
80861;PMS5003;71798;54.942;73.444;2023-09-19T13:14:33;44.00;35.00;21.00
80861;PMS5003;71798;54.942;73.444;2023-09-19T13:17:06;45.00;36.00;23.00
80861;PMS5003;71798;54.942;73.444;2023-09-19T13:19:42;39.00;31.00;19.00
80861;PMS5003;71798;54.942;73.444;2023-09-19T13:22:53;28.25;23.25;14.00
80861;PMS5003;71798;54.942;73.444;2023-09-19T13:25:24;22.25;19.25;12.25
80861;PMS5003;71798;54.942;73.444;2023-09-19T13:27:52;24.50;21.00;13.00
80861;PMS5003;71798;54.942;73.444;2023-09-19T13:30:20;24.00;21.00;13.00
80861;PMS5003;71798;54.942;73.444;2023-09-19T13:32:46;23.50;20.00;12.00
80861;PMS5003;71798;54.942;73.444;2023-09-19T13:35:15;24.00;21.00;12.50
80861;PMS5003;71798;54.942;73.444;2023-09-19T13:37:43;19.00;16.75;11.00
80861;PMS5003;71798;54.942;73.444;2023-09-19T13:40:13;22.00;18.50;11.75
80861;PMS5003;71798;54.942;73.444;2023-09-19T13:42:41;26.00;22.00;13.00
80861;PMS5003;71798;54.942;73.444;2023-09-19T13:45:08;24.00;22.00;13.00
80861;PMS5003;71798;54.942;73.444;2023-09-19T13:47:38;26.00;22.00;14.75
80861;PMS5003;71798;54.942;73.444;2023-09-19T13:50:05;33.75;28.00;18.75
80861;PMS5003;71798;54.942;73.444;2023-09-19T13:52:37;26.00;22.00;13.00
80861;PMS5003;71798;54.942;73.444;2023-09-19T13:55:07;38.50;32.00;20.25
80861;PMS5003;71798;54.942;73.444;2023-09-19T13:57:34;47.00;38.00;24.00
80861;PMS5003;71798;54.942;73.444;2023-09-19T14:00:00;42.00;35.00;22.00
80861;PMS5003;71798;54.942;73.444;2023-09-19T14:02:27;42.50;34.25;21.75
80861;PMS5003;71798;54.942;73.444;2023-09-19T14:05:06;48.00;39.00;24.50
80861;PMS5003;71798;54.942;73.444;2023-09-19T14:07:53;41.00;32.50;20.25
80861;PMS5003;71798;54.942;73.444;2023-09-19T14:10:25;40.00;33.00;21.00
80861;PMS5003;71798;54.942;73.444;2023-09-19T14:12:53;50.00;39.00;24.75
80861;PMS5003;71798;54.942;73.444;2023-09-19T14:15:19;70.00;53.50;33.00